Plain Dealing, LA (71064)

10:16 PM CDT on March 31, 2015 (GMT -0500)
PD High School | | Change Station
CLOSE
Current Station
Personal Weather Station
Location: Plain Dealing, LA
Elevation: 300 ft
Nearby Weather Stations
Active Advisory: Flood Warning

Elev 300 ft 32.91 °N, 93.70 °W | Updated 27 seconds ago

Clear
Clear
64.0 °F
Feels Like 64.0 °F
N
0.0
Wind Variable Wind from West
Gusts 0.0 mph

Today
High -- | Low -- °F
--% Chance of Precip.
Yesterday
High -- | Low -- °F
Precip. -- in
7:04 AM 7:34 PM
Waxing Gibbous, 90% visible
Pressure 29.96 in
Visibility 10.0 miles
Clouds Clear
Dew Point 59 °F
Humidity 83%
Rainfall 0.00 in
Snow Depth Not available.
UV 0 out of 12
Pollen 10.70 out of 12
Air Quality Not available.
Flu Activity Not available.
METAR KDTN 010253Z AUTO 00000KT 10SM CLR 18/14 A2996 RMK AO2 SLP144 T01830144 51014 TSNO

More Conditions Fewer Conditions

Pressure 29.96 in
Visibility 10.0 miles
Clouds Clear
Dew Point 59 °F
Humidity 83%
Rainfall 0.00 in
Snow Depth Not available.
UV 0 out of 12
Pollen 10.70 out of 12
Air Quality Not available.
Flu Activity Not available.
METAR KDTN 010253Z AUTO 00000KT 10SM CLR 18/14 A2996 RMK AO2 SLP144 T01830144 51014 TSNO

More Conditions Fewer Conditions

10-Day Weather Forecast

Almanac

Astronomy

Mar. 31, 2015 Rise Set
Actual Time
Civil Twilight
Nautical Twilight
Astronomical Twilight
Moon
Length of Visible Light
Length of Day
Tomorrow will be .
, % of the Moon is Illuminated

Today's Extremes

State Highs State Lows

Community

WunderPhotos

Upload Photos

1,809,889 photos uploaded!

WunderBlogs® & News

Nearby

Air Quality

  Air Quality AQ Index Pollutant
Not available.

Snow Depth

Station Depth Elevation

Earthquake Activity

City Distance Mag. Time & Date
Minimum magnitude displayed is 2.5.

Coastal Water Temperatures

Place Temperature

Stations

Nearby Weather Stations

Station Location Temp. Windchill Dew Point Humidity Wind Precip. Elev Updated Type
                   
Flood Warning
Statement as of 8:57 AM CDT on March 31, 2015

The Flood Warning continues for
the Bodcau bayou at bayou Bodcau Lake.
* Until further notice... or until the warning is cancelled.
* At 8:00 am Tuesday the stage was 188.0 feet.
* Minor flooding is occurring and minor flooding is forecast.
* Flood stage is 172.0 feet.
* Forecast... the river will continue rising to near 190.0 feet by
tomorrow early afternoon then begin falling.
* Forecast... the river will continue to fall to a stage of 187.9 feet
by tomorrow morning.


Lat... Lon 3282 9351 3289 9344 3272 9346 3270 9351 3277 9351